createdAt,value
2022-10-12T00:00:14.977Z,100776.66
2022-10-12T00:02:42.881Z,100782.97
2022-10-12T00:05:11.003Z,100787.28
2022-10-12T00:07:40.160Z,100794.59
2022-10-12T00:10:08.685Z,100790.59
2022-10-12T00:12:37.169Z,100790.88
2022-10-12T00:15:05.208Z,100793.31
2022-10-12T00:17:32.544Z,100778.69
2022-10-12T00:19:59.855Z,100762.16
2022-10-12T00:22:27.246Z,100789.28
2022-10-12T00:24:54.578Z,100786.13
2022-10-12T00:27:22.150Z,100759.00
2022-10-12T00:29:49.598Z,100786.13
2022-10-12T00:32:17.123Z,100786.13
2022-10-12T00:34:44.470Z,100789.72
2022-10-12T00:37:11.786Z,100791.00
2022-10-12T00:39:39.199Z,100782.84
2022-10-12T00:42:06.644Z,100788.28
2022-10-12T00:44:48.353Z,100787.13
2022-10-12T00:47:21.540Z,100786.88
2022-10-12T00:50:03.239Z,100791.00
2022-10-12T00:52:40.950Z,100792.19
2022-10-12T00:55:13.780Z,100790.44
2022-10-12T00:57:46.632Z,100794.19
2022-10-12T01:00:15.040Z,100787.72
2022-10-12T01:02:46.623Z,100789.84
2022-10-12T01:05:14.256Z,100760.72
2022-10-12T01:07:41.809Z,100787.88
2022-10-12T01:10:09.551Z,100786.56
2022-10-12T01:12:38.346Z,100789.84
2022-10-12T01:15:06.517Z,100790.16
2022-10-12T01:18:07.313Z,100788.13
2022-10-12T01:20:46.784Z,100786.88
2022-10-12T01:23:44.303Z,100791.88
2022-10-12T01:26:48.598Z,100779.38
2022-10-12T01:29:31.451Z,100798.72
2022-10-12T01:32:53.502Z,100800.47
2022-10-12T01:35:25.680Z,100792.09
2022-10-12T01:38:11.194Z,100799.13
2022-10-12T01:41:08.311Z,100791.66
2022-10-12T01:43:39.761Z,100797.00
2022-10-12T01:46:17.364Z,100796.25
2022-10-12T01:48:47.947Z,100798.72
2022-10-12T01:51:40.933Z,100790.94
2022-10-12T01:54:26.149Z,100791.44
2022-10-12T01:57:19.752Z,100800.28
2022-10-12T02:00:05.407Z,100796.81
2022-10-12T02:02:56.844Z,100799.97
2022-10-12T02:05:37.113Z,100796.38
2022-10-12T02:08:09.211Z,100795.53
2022-10-12T02:10:49.564Z,100798.41
2022-10-12T02:13:20.974Z,100797.41
2022-10-12T02:15:49.595Z,100798.47
2022-10-12T02:18:20.631Z,100793.44
2022-10-12T02:20:51.925Z,100799.63
2022-10-12T02:23:21.734Z,100800.47
2022-10-12T02:25:51.864Z,100801.34
2022-10-12T02:28:24.318Z,100803.78
2022-10-12T02:31:05.604Z,100804.06
2022-10-12T02:33:43.417Z,100800.47
2022-10-12T02:36:26.754Z,100802.47
2022-10-12T02:39:03.038Z,100801.84
2022-10-12T02:41:38.951Z,100794.03
2022-10-12T02:44:13.277Z,100801.63
2022-10-12T02:46:41.731Z,100798.72
2022-10-12T02:49:11.229Z,100798.19
2022-10-12T02:51:40.865Z,100803.91
2022-10-12T02:54:08.457Z,100802.19
2022-10-12T02:56:43.225Z,100813.38
2022-10-12T02:59:10.512Z,100807.72
2022-10-12T03:01:38.039Z,100801.41
2022-10-12T03:04:05.620Z,100806.91
2022-10-12T03:06:33.091Z,100808.47
2022-10-12T03:09:05.635Z,100793.50
2022-10-12T03:11:33.078Z,100791.25
2022-10-12T03:14:00.571Z,100792.66
2022-10-12T03:16:27.938Z,100790.63
2022-10-12T03:18:55.261Z,100797.81
2022-10-12T03:21:22.518Z,100795.25
2022-10-12T03:23:49.866Z,100782.91
2022-10-12T03:26:17.165Z,100795.69
2022-10-12T03:28:44.581Z,100792.81
2022-10-12T03:31:13.281Z,100789.53
2022-10-12T03:33:40.584Z,100780.03
2022-10-12T03:36:08.445Z,100789.53
2022-10-12T03:38:36.134Z,100789.53
2022-10-12T03:41:06.755Z,100797.81
2022-10-12T03:43:35.070Z,100796.56
2022-10-12T03:46:02.534Z,100806.06
2022-10-12T03:48:30.061Z,100802.47
2022-10-12T03:50:58.431Z,100795.94
2022-10-12T03:53:25.876Z,100803.72
2022-10-12T03:55:53.242Z,100808.78
2022-10-12T03:58:20.531Z,100816.78
2022-10-12T04:00:47.917Z,100806.59
2022-10-12T04:03:15.278Z,100795.66
2022-10-12T04:05:42.548Z,100811.44
2022-10-12T04:08:09.990Z,100802.56
2022-10-12T04:10:38.401Z,100812.91
2022-10-12T04:13:05.915Z,100819.63
2022-10-12T04:15:33.212Z,100812.59
2022-10-12T04:18:00.561Z,100817.66
2022-10-12T04:20:28.449Z,100821.94
2022-10-12T04:22:55.890Z,100821.94
2022-10-12T04:25:27.730Z,100813.91
2022-10-12T04:27:57.669Z,100812.19
2022-10-12T04:30:25.085Z,100775.09
2022-10-12T04:32:52.702Z,100812.19
2022-10-12T04:35:20.091Z,100812.19
2022-10-12T04:37:47.503Z,100815.91
2022-10-12T04:40:14.894Z,100811.59
2022-10-12T04:42:42.275Z,100816.19
2022-10-12T04:45:09.935Z,100804.84
2022-10-12T04:47:37.515Z,100810.72
2022-10-12T04:50:05.865Z,100806.56
2022-10-12T04:52:33.187Z,100812.44
2022-10-12T04:55:00.760Z,100825.38
2022-10-12T04:57:28.039Z,100821.63
2022-10-12T04:59:55.633Z,100821.94
2022-10-12T05:02:23.147Z,100824.66
2022-10-12T05:04:50.461Z,100819.34
2022-10-12T05:07:17.839Z,100827.38
2022-10-12T05:09:45.284Z,100832.13
2022-10-12T05:12:12.890Z,100825.91
2022-10-12T05:14:40.284Z,100830.81
2022-10-12T05:17:07.621Z,100830.25
2022-10-12T05:19:35.039Z,100839.28
2022-10-12T05:22:02.776Z,100843.75
2022-10-12T05:24:30.188Z,100837.28
2022-10-12T05:26:57.509Z,100847.19
2022-10-12T05:29:24.830Z,100841.00
2022-10-12T05:31:52.066Z,100851.50
2022-10-12T05:34:19.365Z,100851.34
2022-10-12T05:36:47.242Z,100851.81
2022-10-12T05:39:14.584Z,100859.13
2022-10-12T05:41:41.959Z,100852.41
2022-10-12T05:44:09.240Z,100871.97
2022-10-12T05:46:36.618Z,100865.22
2022-10-12T05:49:03.981Z,100861.66
2022-10-12T05:51:31.277Z,100866.00
2022-10-12T05:53:58.579Z,100873.59
2022-10-12T05:56:26.022Z,100877.34
2022-10-12T05:58:53.441Z,100866.56
2022-10-12T06:01:20.774Z,100870.84
2022-10-12T06:03:48.337Z,100877.63
2022-10-12T06:06:15.682Z,100881.38
2022-10-12T06:08:43.184Z,100877.50
2022-10-12T06:11:10.662Z,100886.25
2022-10-12T06:13:38.319Z,100880.53
2022-10-12T06:16:06.037Z,100890.72
2022-10-12T06:18:36.486Z,100893.88
2022-10-12T06:21:28.450Z,100885.28
2022-10-12T06:23:51.249Z,100898.78
2022-10-12T06:26:18.699Z,100898.09
2022-10-12T06:28:46.242Z,100905.81
2022-10-12T06:31:14.344Z,100898.16
2022-10-12T06:33:41.689Z,100900.88
2022-10-12T06:36:09.092Z,100907.34
2022-10-12T06:38:36.822Z,100902.31
2022-10-12T06:41:04.407Z,100902.59
2022-10-12T06:43:33.171Z,100912.66
2022-10-12T06:46:04.405Z,100912.81
2022-10-12T06:48:31.707Z,100912.38
2022-10-12T06:50:59.163Z,100926.03
2022-10-12T06:53:29.041Z,100929.16
2022-10-12T06:55:56.373Z,100929.75
2022-10-12T06:58:23.863Z,100939.13
2022-10-12T07:00:52.714Z,100930.34
2022-10-12T07:03:20.661Z,100937.53
2022-10-12T07:05:48.027Z,100933.53
2022-10-12T07:08:15.398Z,100924.31
2022-10-12T07:10:42.800Z,100929.16
2022-10-12T07:13:10.146Z,100944.56
2022-10-12T07:15:37.526Z,100934.03
2022-10-12T07:18:04.922Z,100941.19
2022-10-12T07:20:32.349Z,100944.31
2022-10-12T07:23:11.506Z,100936.78
2022-10-12T07:25:39.048Z,100941.22
2022-10-12T07:28:06.775Z,100925.41
2022-10-12T07:30:36.667Z,100954.91
2022-10-12T07:33:04.130Z,100938.81
2022-10-12T07:35:31.491Z,100950.94
2022-10-12T07:37:58.898Z,100952.78
2022-10-12T07:40:28.833Z,100959.38
2022-10-12T07:45:44.139Z,100952.75
2022-10-12T07:48:14.240Z,100956.16
2022-10-12T07:50:41.718Z,100958.72
2022-10-12T07:53:09.320Z,100963.34
2022-10-12T07:55:36.837Z,100963.41
2022-10-12T07:58:04.716Z,100966.38
2022-10-12T08:00:32.972Z,100965.09
2022-10-12T08:03:00.261Z,100929.97
2022-10-12T08:05:27.968Z,100963.72
2022-10-12T08:07:56.115Z,100940.38
2022-10-12T08:10:23.793Z,100960.81
2022-10-12T08:12:53.110Z,100966.28
2022-10-12T08:15:20.874Z,100977.81
2022-10-12T08:17:48.416Z,100978.22
2022-10-12T08:20:15.762Z,100974.56
2022-10-12T08:22:43.203Z,100979.38
2022-10-12T08:25:10.745Z,100971.75
2022-10-12T08:27:38.933Z,100971.88
2022-10-12T08:30:07.343Z,100973.53
2022-10-12T08:32:34.715Z,100971.38
2022-10-12T08:35:02.521Z,100973.81
2022-10-12T08:37:30.666Z,100976.41
2022-10-12T08:40:02.307Z,100976.28
2022-10-12T08:42:44.948Z,100980.13
2022-10-12T08:45:26.449Z,100987.28
2022-10-12T08:48:07.635Z,100991.66
2022-10-12T08:50:44.246Z,100975.47
2022-10-12T08:53:16.255Z,100990.75
2022-10-12T08:55:46.954Z,100988.63
2022-10-12T08:58:21.097Z,100991.72
2022-10-12T09:00:53.805Z,100982.06
2022-10-12T09:03:43.460Z,100989.16
2022-10-12T09:06:24.897Z,100986.03
2022-10-12T09:09:07.040Z,100984.59
2022-10-12T09:11:57.702Z,100978.31
2022-10-12T09:14:33.069Z,100987.28
2022-10-12T09:17:05.246Z,100983.53
2022-10-12T09:19:38.736Z,100982.56
2022-10-12T09:22:13.965Z,100987.66
2022-10-12T09:24:41.536Z,100978.38
2022-10-12T09:27:16.008Z,100980.09
2022-10-12T09:29:50.495Z,100984.34
2022-10-12T09:32:33.422Z,100982.63
2022-10-12T09:35:02.799Z,100988.84
2022-10-12T09:37:33.331Z,100980.53
2022-10-12T09:40:00.925Z,100985.09
2022-10-12T09:42:28.523Z,100981.00
2022-10-12T09:45:03.340Z,100981.03
2022-10-12T09:47:33.457Z,100977.00
2022-10-12T09:50:06.774Z,100987.25
2022-10-12T09:52:36.859Z,100988.16
2022-10-12T09:55:20.757Z,100982.44
2022-10-12T09:58:00.726Z,100974.91
2022-10-12T10:00:33.156Z,100981.94
2022-10-12T10:03:02.206Z,100986.09
2022-10-12T10:05:38.084Z,100977.63
2022-10-12T10:08:23.344Z,100983.53
2022-10-12T10:10:56.581Z,100973.59
2022-10-12T10:13:30.122Z,100980.75
2022-10-12T10:16:09.079Z,100969.53
2022-10-12T10:18:37.815Z,100966.63
2022-10-12T10:21:08.449Z,100975.06
2022-10-12T10:23:51.861Z,100967.00
2022-10-12T10:26:21.507Z,100968.84
2022-10-12T10:28:51.942Z,100966.88
2022-10-12T10:31:23.578Z,100966.34
2022-10-12T10:34:24.259Z,100962.22
2022-10-12T10:36:56.252Z,100964.44
2022-10-12T10:39:28.275Z,100963.72
2022-10-12T10:41:56.542Z,100973.47
2022-10-12T10:44:26.726Z,100976.31
2022-10-12T10:46:56.594Z,100969.16
2022-10-12T10:49:49.929Z,100968.91
2022-10-12T10:52:36.044Z,100968.91
2022-10-12T10:55:22.456Z,100965.34
2022-10-12T10:57:52.558Z,100965.19
2022-10-12T11:00:40.217Z,100935.06
2022-10-12T11:03:14.504Z,100957.69
2022-10-12T11:05:49.822Z,100933.91
2022-10-12T11:08:25.188Z,100940.09
2022-10-12T11:11:02.219Z,100957.16
2022-10-12T11:13:36.774Z,100948.00
2022-10-12T11:16:15.040Z,100946.63
2022-10-12T11:18:49.972Z,100948.03
2022-10-12T11:21:24.306Z,100938.09
2022-10-12T11:24:01.098Z,100943.88
2022-10-12T11:26:54.150Z,100944.69
2022-10-12T11:29:21.615Z,100937.44
2022-10-12T11:32:15.005Z,100941.25
2022-10-12T11:35:00.149Z,100934.72
2022-10-12T11:37:39.731Z,100937.56
2022-10-12T11:40:19.227Z,100941.50
2022-10-12T11:42:53.944Z,100942.16
2022-10-12T11:45:35.156Z,100944.25
2022-10-12T11:48:16.125Z,100936.25
2022-10-12T11:50:47.077Z,100940.03
2022-10-12T11:53:20.312Z,100932.56
2022-10-12T11:56:09.155Z,100931.00
2022-10-12T11:59:00.100Z,100928.72
2022-10-12T12:01:50.073Z,100934.63
2022-10-12T12:04:42.733Z,100937.16
2022-10-12T12:07:44.826Z,100936.59
2022-10-12T12:10:28.173Z,100933.38
2022-10-12T12:13:23.941Z,100934.63
2022-10-12T12:15:53.962Z,100940.56
2022-10-12T12:19:13.712Z,100929.56
2022-10-12T12:22:19.411Z,100932.31
2022-10-12T12:24:59.668Z,100923.34
2022-10-12T12:27:38.405Z,100939.00
2022-10-12T12:30:33.983Z,100939.25
2022-10-12T12:33:05.386Z,100936.28
2022-10-12T12:35:35.918Z,100935.50
2022-10-12T12:38:17.446Z,100948.19
2022-10-12T12:41:10.734Z,100945.94
2022-10-12T12:43:51.538Z,100951.94
2022-10-12T12:46:20.070Z,100948.38
2022-10-12T12:48:47.532Z,100943.41
2022-10-12T12:51:17.968Z,100951.03
2022-10-12T12:54:10.372Z,100954.06
2022-10-12T12:56:48.601Z,100943.44
2022-10-12T12:59:40.615Z,100946.16
2022-10-12T13:02:23.565Z,100941.44
2022-10-12T13:04:56.706Z,100939.13
2022-10-12T13:07:42.814Z,100946.22
2022-10-12T13:10:42.150Z,100941.16
2022-10-12T13:13:44.196Z,100917.75
2022-10-12T13:17:09.482Z,100941.31
2022-10-12T13:19:17.624Z,100937.84
2022-10-12T13:21:52.665Z,100944.47
2022-10-12T13:24:20.014Z,100934.66
2022-10-12T13:26:51.888Z,100898.75
2022-10-12T13:29:28.556Z,100911.91
2022-10-12T13:32:01.277Z,100940.03
2022-10-12T13:34:45.609Z,100919.16
2022-10-12T13:37:15.683Z,100940.59
2022-10-12T13:39:47.206Z,100945.34
2022-10-12T13:42:18.869Z,100942.28
2022-10-12T13:44:48.923Z,100921.47
2022-10-12T13:47:25.142Z,100944.44
2022-10-12T13:49:53.216Z,100945.00
2022-10-12T13:52:30.942Z,100940.69
2022-10-12T13:55:00.468Z,100941.84
2022-10-12T13:57:50.359Z,100936.97
2022-10-12T14:00:21.559Z,100938.53
2022-10-12T14:03:04.408Z,100931.66
2022-10-12T14:05:34.189Z,100929.19
2022-10-12T14:08:19.965Z,100928.91
2022-10-12T14:10:49.836Z,100924.56
2022-10-12T14:13:26.707Z,100925.47
2022-10-12T14:15:55.764Z,100936.28
2022-10-12T14:18:35.728Z,100932.69
2022-10-12T14:21:22.314Z,100922.75
2022-10-12T14:23:56.151Z,100935.84
2022-10-12T14:26:27.672Z,100928.66
2022-10-12T14:28:56.177Z,100935.28
2022-10-12T14:31:49.911Z,100938.00
2022-10-12T14:34:29.538Z,100938.72
2022-10-12T14:37:21.799Z,100930.09
2022-10-12T14:39:50.837Z,100923.19
2022-10-12T14:42:35.874Z,100931.25
2022-10-12T14:45:06.755Z,100935.84
2022-10-12T14:47:39.069Z,100932.13
2022-10-12T14:50:09.904Z,100926.53
2022-10-12T14:52:45.579Z,100924.38
2022-10-12T14:55:18.884Z,100935.16
2022-10-12T14:57:46.693Z,100933.69
2022-10-12T15:00:35.145Z,100929.69
2022-10-12T15:03:04.047Z,100928.09
2022-10-12T15:05:33.388Z,100925.78
2022-10-12T15:08:04.627Z,100922.34
2022-10-12T15:10:31.919Z,100924.34
2022-10-12T15:12:59.289Z,100909.69
2022-10-12T15:15:32.570Z,100926.09
2022-10-12T15:18:00.288Z,100907.38
2022-10-12T15:20:30.014Z,100925.78
2022-10-12T15:22:58.601Z,100927.78
2022-10-12T15:25:36.753Z,100928.06
2022-10-12T15:28:05.166Z,100923.06
2022-10-12T15:30:33.725Z,100916.59
2022-10-12T15:33:01.125Z,100923.34
2022-10-12T15:35:33.211Z,100913.00
2022-10-12T15:38:00.906Z,100930.81
2022-10-12T15:40:30.119Z,100917.44
2022-10-12T15:42:57.814Z,100921.75
2022-10-12T15:45:26.594Z,100922.34
2022-10-12T15:47:54.668Z,100926.34
2022-10-12T15:50:25.047Z,100922.75
2022-10-12T15:52:53.112Z,100929.06
2022-10-12T15:55:23.571Z,100934.44
2022-10-12T15:57:52.028Z,100934.53
2022-10-12T16:00:26.304Z,100917.28
2022-10-12T16:02:55.565Z,100937.56
2022-10-12T16:05:26.356Z,100944.03
2022-10-12T16:07:54.365Z,100952.78
2022-10-12T16:10:28.606Z,100948.09
2022-10-12T16:12:56.037Z,100944.75
2022-10-12T16:15:28.045Z,100948.47
2022-10-12T16:17:56.657Z,100948.19
2022-10-12T16:20:24.139Z,100941.72
2022-10-12T16:22:51.862Z,100953.38
2022-10-12T16:25:22.486Z,100955.53
2022-10-12T16:27:54.013Z,100951.94
2022-10-12T16:30:22.767Z,100946.47
2022-10-12T16:32:50.412Z,100947.06
2022-10-12T16:35:18.013Z,100949.63
2022-10-12T16:37:45.497Z,100928.19
2022-10-12T16:40:13.506Z,100920.28
2022-10-12T16:42:40.927Z,100953.06
2022-10-12T16:45:08.864Z,100949.63
2022-10-12T16:47:41.919Z,100954.94
2022-10-12T16:50:10.902Z,100953.09
2022-10-12T16:52:38.394Z,100959.25
2022-10-12T16:55:06.691Z,100926.31
2022-10-12T16:57:34.390Z,100965.44
2022-10-12T17:00:02.195Z,100964.88
2022-10-12T17:02:29.709Z,100957.13
2022-10-12T17:04:57.191Z,100956.97
2022-10-12T17:07:24.771Z,100955.25
2022-10-12T17:09:52.199Z,100933.81
2022-10-12T17:12:19.434Z,100943.88
2022-10-12T17:14:46.838Z,100950.06
2022-10-12T17:17:14.201Z,100950.22
2022-10-12T17:19:43.727Z,100952.22
2022-10-12T17:22:13.592Z,100956.97
2022-10-12T17:24:42.836Z,100949.06
2022-10-12T17:27:12.674Z,100946.22
2022-10-12T17:29:41.337Z,100945.91
2022-10-12T17:32:10.811Z,100953.41
2022-10-12T17:34:43.134Z,100951.78
2022-10-12T17:37:13.058Z,100953.53
2022-10-12T17:39:43.594Z,100962.59
2022-10-12T17:42:11.381Z,100950.22
2022-10-12T17:44:38.966Z,100957.25
2022-10-12T17:47:06.593Z,100966.34
2022-10-12T17:49:33.930Z,100955.81
2022-10-12T17:52:01.277Z,100958.25
2022-10-12T17:54:28.971Z,100963.00
2022-10-12T17:56:57.061Z,100943.59
2022-10-12T17:59:24.794Z,100934.69
2022-10-12T18:01:52.814Z,100958.28
2022-10-12T18:04:21.058Z,100959.16
2022-10-12T18:06:48.746Z,100947.38
2022-10-12T18:09:16.445Z,100946.81
2022-10-12T18:11:44.629Z,100954.69
2022-10-12T18:14:13.584Z,100953.84
2022-10-12T18:16:41.351Z,100954.13
2022-10-12T18:19:10.506Z,100955.44
2022-10-12T18:21:38.741Z,100954.13
2022-10-12T18:24:16.639Z,100953.41
2022-10-12T18:26:46.477Z,100951.56
2022-10-12T18:29:17.766Z,100952.25
2022-10-12T18:31:45.742Z,100960.59
2022-10-12T18:34:13.318Z,100964.34
2022-10-12T18:36:43.033Z,100970.38
2022-10-12T18:39:10.629Z,100969.19
2022-10-12T18:41:38.747Z,100970.53
2022-10-12T18:44:09.763Z,100974.41
2022-10-12T18:46:37.691Z,100973.41
2022-10-12T18:49:08.192Z,100971.25
2022-10-12T18:51:39.353Z,100957.72
2022-10-12T18:54:07.275Z,100963.19
2022-10-12T18:56:36.987Z,100966.47
2022-10-12T18:59:05.611Z,100968.66
2022-10-12T19:01:34.240Z,100974.28
2022-10-12T19:04:02.536Z,100974.81
2022-10-12T19:06:35.080Z,100969.81
2022-10-12T19:09:02.736Z,100970.38
2022-10-12T19:11:33.307Z,100968.66
2022-10-12T19:14:11.557Z,100967.94
2022-10-12T19:16:38.881Z,100965.94
2022-10-12T19:19:09.381Z,100968.97
2022-10-12T19:21:36.756Z,100985.50
2022-10-12T19:24:06.573Z,100976.69
2022-10-12T19:26:34.757Z,100976.44
2022-10-12T19:29:02.256Z,100979.56
2022-10-12T19:31:34.135Z,100981.59
2022-10-12T19:34:05.139Z,100982.88
2022-10-12T19:36:33.169Z,100976.84
2022-10-12T19:39:04.715Z,100979.03
2022-10-12T19:41:32.033Z,100985.50
2022-10-12T19:44:01.477Z,100990.97
2022-10-12T19:46:30.271Z,100982.84
2022-10-12T19:48:59.407Z,100998.25
2022-10-12T19:51:31.422Z,100997.50
2022-10-12T19:54:02.291Z,100996.09
2022-10-12T19:56:29.701Z,100976.38
2022-10-12T19:58:58.119Z,100992.50
2022-10-12T20:01:35.184Z,100991.78
2022-10-12T20:04:07.215Z,100989.31
2022-10-12T20:06:34.970Z,100979.25
2022-10-12T20:09:03.439Z,100993.34
2022-10-12T20:11:31.323Z,100985.56
2022-10-12T20:13:58.953Z,100988.75
2022-10-12T20:16:28.984Z,100992.34
2022-10-12T20:18:58.562Z,100993.34
2022-10-12T20:21:25.973Z,100985.28
2022-10-12T20:23:53.391Z,100989.31
2022-10-12T20:26:23.633Z,100993.91
2022-10-12T20:28:52.844Z,100991.03
2022-10-12T20:31:23.511Z,100990.16
2022-10-12T20:33:53.973Z,100974.63
2022-10-12T20:36:25.553Z,100994.19
2022-10-12T20:38:53.228Z,101005.13
2022-10-12T20:41:22.079Z,100990.91
2022-10-12T20:43:49.512Z,100987.03
2022-10-12T20:46:18.691Z,101000.81
2022-10-12T20:48:46.484Z,100994.91
2022-10-12T20:51:25.523Z,100993.75
2022-10-12T20:53:53.195Z,100996.63
2022-10-12T20:56:26.334Z,100998.63
2022-10-12T20:58:55.690Z,100999.34
2022-10-12T21:01:23.856Z,100996.22
2022-10-12T21:03:52.937Z,100996.63
2022-10-12T21:06:21.760Z,101005.81
2022-10-12T21:08:54.877Z,101012.69
2022-10-12T21:11:23.626Z,101014.00
2022-10-12T21:13:51.709Z,101008.53
2022-10-12T21:16:19.349Z,101003.34
2022-10-12T21:18:46.780Z,101009.25
2022-10-12T21:21:16.624Z,101000.47
2022-10-12T21:23:46.187Z,101010.84
2022-10-12T21:26:16.973Z,101013.09
2022-10-12T21:28:45.647Z,101023.19
2022-10-12T21:31:14.006Z,101017.03
2022-10-12T21:33:41.832Z,101019.03
2022-10-12T21:36:29.240Z,101018.28
2022-10-12T21:38:57.409Z,101021.31
2022-10-12T21:41:28.504Z,101023.47
2022-10-12T21:43:56.666Z,101013.81
2022-10-12T21:46:27.490Z,101012.66
2022-10-12T21:48:55.641Z,101011.56
2022-10-12T21:51:24.245Z,101007.69
2022-10-12T21:53:52.658Z,101002.75
2022-10-12T21:56:28.256Z,101005.47
2022-10-12T21:58:59.212Z,101012.41
2022-10-12T22:01:29.881Z,101012.41
2022-10-12T22:03:59.787Z,101018.59
2022-10-12T22:06:28.969Z,101011.56
2022-10-12T22:09:03.424Z,101012.75
2022-10-12T22:11:32.252Z,101006.81
2022-10-12T22:14:05.441Z,101003.06
2022-10-12T22:16:34.797Z,101002.34
2022-10-12T22:19:04.404Z,100997.59
2022-10-12T22:21:35.516Z,101005.09
2022-10-12T22:24:03.026Z,101003.34
2022-10-12T22:26:30.738Z,100996.72
2022-10-12T22:28:59.815Z,101000.47
2022-10-12T22:31:27.343Z,100992.13
2022-10-12T22:33:55.668Z,101003.75
2022-10-12T22:36:23.366Z,101009.38
2022-10-12T22:38:50.780Z,100997.88
2022-10-12T22:41:20.187Z,101004.22
2022-10-12T22:43:49.060Z,101002.34
2022-10-12T22:46:17.449Z,100994.16
2022-10-12T22:48:45.368Z,100992.88
2022-10-12T22:51:16.948Z,100992.47
2022-10-12T22:53:48.613Z,100992.16
2022-10-12T22:56:18.771Z,100994.59
2022-10-12T22:58:48.665Z,100995.44
2022-10-12T23:01:17.609Z,100997.19
2022-10-12T23:03:46.510Z,100996.91
2022-10-12T23:06:16.140Z,100985.81
2022-10-12T23:08:44.014Z,100985.38
2022-10-12T23:11:20.076Z,100982.63
2022-10-12T23:13:48.375Z,100984.66
2022-10-12T23:16:18.761Z,100988.25
2022-10-12T23:18:46.250Z,100987.84
2022-10-12T23:21:17.275Z,100998.75
2022-10-12T23:23:46.399Z,100992.00
2022-10-12T23:26:16.960Z,100988.13
2022-10-12T23:28:44.968Z,100987.25
2022-10-12T23:31:18.225Z,100988.69
2022-10-12T23:33:45.702Z,100969.28
2022-10-12T23:36:16.047Z,100986.13
2022-10-12T23:38:44.986Z,100989.09
2022-10-12T23:41:13.402Z,100993.84
2022-10-12T23:43:41.081Z,100980.91
2022-10-12T23:46:08.884Z,100991.13
2022-10-12T23:48:36.355Z,100985.50
2022-10-12T23:51:07.071Z,100991.13
2022-10-12T23:53:36.298Z,100987.66
2022-10-12T23:56:06.300Z,100989.41
2022-10-12T23:58:34.083Z,100991.13
